sensor_id;sensor_type;location;lat;lon;timestamp;temperature;humidity
9033;DHT22;4551;53.164;8.210;2022-10-16T00:02:23;12.70;99.90
9033;DHT22;4551;53.164;8.210;2022-10-16T00:04:51;12.70;99.90
9033;DHT22;4551;53.164;8.210;2022-10-16T00:07:18;12.70;99.90
9033;DHT22;4551;53.164;8.210;2022-10-16T00:09:46;12.70;99.90
9033;DHT22;4551;53.164;8.210;2022-10-16T00:12:16;12.70;99.90
9033;DHT22;4551;53.164;8.210;2022-10-16T00:14:44;12.70;99.90
9033;DHT22;4551;53.164;8.210;2022-10-16T00:17:12;12.60;99.90
9033;DHT22;4551;53.164;8.210;2022-10-16T00:19:40;12.60;99.90
9033;DHT22;4551;53.164;8.210;2022-10-16T00:22:26;12.60;99.90
9033;DHT22;4551;53.164;8.210;2022-10-16T00:24:54;12.60;99.90
9033;DHT22;4551;53.164;8.210;2022-10-16T00:27:23;12.50;99.90
9033;DHT22;4551;53.164;8.210;2022-10-16T00:29:51;12.50;99.90
9033;DHT22;4551;53.164;8.210;2022-10-16T00:32:19;12.50;99.90
9033;DHT22;4551;53.164;8.210;2022-10-16T00:34:47;12.50;99.90
9033;DHT22;4551;53.164;8.210;2022-10-16T00:37:15;12.60;99.90
9033;DHT22;4551;53.164;8.210;2022-10-16T00:39:43;12.50;99.90
9033;DHT22;4551;53.164;8.210;2022-10-16T00:42:13;12.50;99.90
9033;DHT22;4551;53.164;8.210;2022-10-16T00:44:44;12.50;99.90
9033;DHT22;4551;53.164;8.210;2022-10-16T00:47:14;12.50;99.90
9033;DHT22;4551;53.164;8.210;2022-10-16T00:49:43;12.40;99.90
9033;DHT22;4551;53.164;8.210;2022-10-16T00:52:11;12.50;99.90
9033;DHT22;4551;53.164;8.210;2022-10-16T00:54:39;12.40;99.90
9033;DHT22;4551;53.164;8.210;2022-10-16T00:57:07;12.40;99.90
9033;DHT22;4551;53.164;8.210;2022-10-16T00:59:36;12.40;99.90
9033;DHT22;4551;53.164;8.210;2022-10-16T01:02:06;12.40;99.90
9033;DHT22;4551;53.164;8.210;2022-10-16T01:04:35;12.40;99.90
9033;DHT22;4551;53.164;8.210;2022-10-16T01:07:06;12.40;99.90
9033;DHT22;4551;53.164;8.210;2022-10-16T01:09:40;12.40;99.90
9033;DHT22;4551;53.164;8.210;2022-10-16T01:12:12;12.40;99.90
9033;DHT22;4551;53.164;8.210;2022-10-16T01:14:43;12.30;99.90
9033;DHT22;4551;53.164;8.210;2022-10-16T01:17:15;12.40;99.90
9033;DHT22;4551;53.164;8.210;2022-10-16T01:22:33;12.30;99.90
9033;DHT22;4551;53.164;8.210;2022-10-16T01:25:03;12.30;99.90
9033;DHT22;4551;53.164;8.210;2022-10-16T01:27:34;12.30;99.90
9033;DHT22;4551;53.164;8.210;2022-10-16T01:30:04;12.30;99.90
9033;DHT22;4551;53.164;8.210;2022-10-16T01:35:05;12.20;99.90
9033;DHT22;4551;53.164;8.210;2022-10-16T01:37:37;12.20;99.90
9033;DHT22;4551;53.164;8.210;2022-10-16T01:40:07;12.20;99.90
9033;DHT22;4551;53.164;8.210;2022-10-16T01:42:38;12.20;99.90
9033;DHT22;4551;53.164;8.210;2022-10-16T01:45:07;12.20;99.90
9033;DHT22;4551;53.164;8.210;2022-10-16T01:47:38;12.20;99.90
9033;DHT22;4551;53.164;8.210;2022-10-16T01:50:06;12.20;99.90
9033;DHT22;4551;53.164;8.210;2022-10-16T01:52:36;12.20;99.90
9033;DHT22;4551;53.164;8.210;2022-10-16T01:55:05;12.20;99.90
9033;DHT22;4551;53.164;8.210;2022-10-16T01:57:34;12.30;99.90
9033;DHT22;4551;53.164;8.210;2022-10-16T02:00:07;12.20;99.90
9033;DHT22;4551;53.164;8.210;2022-10-16T02:02:35;12.20;99.90
9033;DHT22;4551;53.164;8.210;2022-10-16T02:05:04;12.30;99.90
9033;DHT22;4551;53.164;8.210;2022-10-16T02:07:35;12.30;99.90
9033;DHT22;4551;53.164;8.210;2022-10-16T02:10:04;12.30;99.90
9033;DHT22;4551;53.164;8.210;2022-10-16T02:12:32;12.30;99.90
9033;DHT22;4551;53.164;8.210;2022-10-16T02:15:01;12.30;99.90
9033;DHT22;4551;53.164;8.210;2022-10-16T02:17:31;12.30;99.90
9033;DHT22;4551;53.164;8.210;2022-10-16T02:19:59;12.30;99.90
9033;DHT22;4551;53.164;8.210;2022-10-16T02:22:28;12.20;99.90
9033;DHT22;4551;53.164;8.210;2022-10-16T02:24:58;12.30;99.90
9033;DHT22;4551;53.164;8.210;2022-10-16T02:27:27;12.30;99.90
9033;DHT22;4551;53.164;8.210;2022-10-16T02:29:59;12.30;99.90
9033;DHT22;4551;53.164;8.210;2022-10-16T02:32:36;12.30;99.90
9033;DHT22;4551;53.164;8.210;2022-10-16T02:35:05;12.30;99.90
9033;DHT22;4551;53.164;8.210;2022-10-16T02:37:34;12.30;99.90
9033;DHT22;4551;53.164;8.210;2022-10-16T02:40:03;12.30;99.90
9033;DHT22;4551;53.164;8.210;2022-10-16T02:42:33;12.30;99.90
9033;DHT22;4551;53.164;8.210;2022-10-16T02:45:01;12.30;99.90
9033;DHT22;4551;53.164;8.210;2022-10-16T02:47:29;12.30;99.90
9033;DHT22;4551;53.164;8.210;2022-10-16T02:49:58;12.30;99.90
9033;DHT22;4551;53.164;8.210;2022-10-16T02:52:26;12.30;99.90
9033;DHT22;4551;53.164;8.210;2022-10-16T02:54:55;12.30;99.90
9033;DHT22;4551;53.164;8.210;2022-10-16T02:57:23;12.30;99.90
9033;DHT22;4551;53.164;8.210;2022-10-16T02:59:51;12.30;99.90
9033;DHT22;4551;53.164;8.210;2022-10-16T03:02:19;12.30;99.90
9033;DHT22;4551;53.164;8.210;2022-10-16T03:04:47;12.30;99.90
9033;DHT22;4551;53.164;8.210;2022-10-16T03:07:16;12.20;99.90
9033;DHT22;4551;53.164;8.210;2022-10-16T03:09:44;12.20;99.90
9033;DHT22;4551;53.164;8.210;2022-10-16T03:12:12;12.20;99.90
9033;DHT22;4551;53.164;8.210;2022-10-16T03:14:40;12.20;99.90
9033;DHT22;4551;53.164;8.210;2022-10-16T03:17:08;12.20;99.90
9033;DHT22;4551;53.164;8.210;2022-10-16T03:19:36;12.20;99.90
9033;DHT22;4551;53.164;8.210;2022-10-16T03:22:04;12.20;99.90
9033;DHT22;4551;53.164;8.210;2022-10-16T03:24:34;12.20;99.90
9033;DHT22;4551;53.164;8.210;2022-10-16T03:27:01;12.20;99.90
9033;DHT22;4551;53.164;8.210;2022-10-16T03:29:29;12.10;99.90
9033;DHT22;4551;53.164;8.210;2022-10-16T03:31:58;12.10;99.90
9033;DHT22;4551;53.164;8.210;2022-10-16T03:34:27;12.20;99.90
9033;DHT22;4551;53.164;8.210;2022-10-16T03:36:55;12.20;99.90
9033;DHT22;4551;53.164;8.210;2022-10-16T03:39:23;12.20;99.90
9033;DHT22;4551;53.164;8.210;2022-10-16T03:41:52;12.20;99.90
9033;DHT22;4551;53.164;8.210;2022-10-16T03:44:20;12.20;99.90
9033;DHT22;4551;53.164;8.210;2022-10-16T03:46:48;12.20;99.90
9033;DHT22;4551;53.164;8.210;2022-10-16T03:49:16;12.30;99.90
9033;DHT22;4551;53.164;8.210;2022-10-16T03:51:44;12.30;99.90
9033;DHT22;4551;53.164;8.210;2022-10-16T03:54:12;12.30;99.90
9033;DHT22;4551;53.164;8.210;2022-10-16T03:56:40;12.30;99.90
9033;DHT22;4551;53.164;8.210;2022-10-16T03:59:09;12.30;99.90
9033;DHT22;4551;53.164;8.210;2022-10-16T04:01:37;12.30;99.90
9033;DHT22;4551;53.164;8.210;2022-10-16T04:04:05;12.30;99.90
9033;DHT22;4551;53.164;8.210;2022-10-16T04:06:33;12.40;99.90
9033;DHT22;4551;53.164;8.210;2022-10-16T04:09:01;12.40;99.90
9033;DHT22;4551;53.164;8.210;2022-10-16T04:11:29;12.50;99.90
9033;DHT22;4551;53.164;8.210;2022-10-16T04:13:57;12.40;99.90
9033;DHT22;4551;53.164;8.210;2022-10-16T04:16:27;12.40;99.90
9033;DHT22;4551;53.164;8.210;2022-10-16T04:18:54;12.50;99.90
9033;DHT22;4551;53.164;8.210;2022-10-16T04:21:22;12.50;99.90
9033;DHT22;4551;53.164;8.210;2022-10-16T04:23:50;12.50;99.90
9033;DHT22;4551;53.164;8.210;2022-10-16T04:26:18;12.50;99.90
9033;DHT22;4551;53.164;8.210;2022-10-16T04:28:46;12.50;99.90
9033;DHT22;4551;53.164;8.210;2022-10-16T04:31:14;12.50;99.90
9033;DHT22;4551;53.164;8.210;2022-10-16T04:33:43;12.50;99.90
9033;DHT22;4551;53.164;8.210;2022-10-16T04:36:12;12.50;99.90
9033;DHT22;4551;53.164;8.210;2022-10-16T04:38:40;12.60;99.90
9033;DHT22;4551;53.164;8.210;2022-10-16T04:41:08;12.60;99.90
9033;DHT22;4551;53.164;8.210;2022-10-16T04:43:36;12.60;99.90
9033;DHT22;4551;53.164;8.210;2022-10-16T04:46:04;12.60;99.90
9033;DHT22;4551;53.164;8.210;2022-10-16T04:48:32;12.60;99.90
9033;DHT22;4551;53.164;8.210;2022-10-16T04:51:01;12.60;99.90
9033;DHT22;4551;53.164;8.210;2022-10-16T04:53:29;12.60;99.90
9033;DHT22;4551;53.164;8.210;2022-10-16T04:55:57;12.60;99.90
9033;DHT22;4551;53.164;8.210;2022-10-16T04:58:25;12.60;99.90
9033;DHT22;4551;53.164;8.210;2022-10-16T05:00:53;12.60;99.90
9033;DHT22;4551;53.164;8.210;2022-10-16T05:03:21;12.60;99.90
9033;DHT22;4551;53.164;8.210;2022-10-16T05:05:49;12.60;99.90
9033;DHT22;4551;53.164;8.210;2022-10-16T05:08:18;12.60;99.90
9033;DHT22;4551;53.164;8.210;2022-10-16T05:10:46;12.60;99.90
9033;DHT22;4551;53.164;8.210;2022-10-16T05:13:14;12.60;99.90
9033;DHT22;4551;53.164;8.210;2022-10-16T05:15:42;12.60;99.90
9033;DHT22;4551;53.164;8.210;2022-10-16T05:18:10;12.60;99.90
9033;DHT22;4551;53.164;8.210;2022-10-16T05:20:38;12.60;99.90
9033;DHT22;4551;53.164;8.210;2022-10-16T05:23:06;12.70;99.90
9033;DHT22;4551;53.164;8.210;2022-10-16T05:25:35;12.70;99.90
9033;DHT22;4551;53.164;8.210;2022-10-16T05:28:03;12.70;99.90
9033;DHT22;4551;53.164;8.210;2022-10-16T05:30:31;12.70;99.90
9033;DHT22;4551;53.164;8.210;2022-10-16T05:32:59;12.70;99.90
9033;DHT22;4551;53.164;8.210;2022-10-16T05:35:27;12.70;99.90
9033;DHT22;4551;53.164;8.210;2022-10-16T05:37:55;12.70;99.90
9033;DHT22;4551;53.164;8.210;2022-10-16T05:40:23;12.70;99.90
9033;DHT22;4551;53.164;8.210;2022-10-16T05:42:55;12.70;99.90
9033;DHT22;4551;53.164;8.210;2022-10-16T05:45:23;12.70;99.90
9033;DHT22;4551;53.164;8.210;2022-10-16T05:47:51;12.70;99.90
9033;DHT22;4551;53.164;8.210;2022-10-16T05:50:19;12.70;99.90
9033;DHT22;4551;53.164;8.210;2022-10-16T05:52:47;12.70;99.90
9033;DHT22;4551;53.164;8.210;2022-10-16T05:55:15;12.80;99.90
9033;DHT22;4551;53.164;8.210;2022-10-16T05:57:43;12.70;99.90
9033;DHT22;4551;53.164;8.210;2022-10-16T06:00:12;12.60;99.90
9033;DHT22;4551;53.164;8.210;2022-10-16T06:02:40;12.70;99.90
9033;DHT22;4551;53.164;8.210;2022-10-16T06:05:08;12.70;99.90
9033;DHT22;4551;53.164;8.210;2022-10-16T06:07:36;12.70;99.90
9033;DHT22;4551;53.164;8.210;2022-10-16T06:10:04;12.70;99.90
9033;DHT22;4551;53.164;8.210;2022-10-16T06:12:32;12.70;99.90
9033;DHT22;4551;53.164;8.210;2022-10-16T06:15:00;12.70;99.90
9033;DHT22;4551;53.164;8.210;2022-10-16T06:17:30;12.70;99.90
9033;DHT22;4551;53.164;8.210;2022-10-16T06:19:57;12.70;99.90
9033;DHT22;4551;53.164;8.210;2022-10-16T06:22:25;12.70;99.90
9033;DHT22;4551;53.164;8.210;2022-10-16T06:24:53;12.70;99.90
9033;DHT22;4551;53.164;8.210;2022-10-16T06:27:21;12.70;99.90
9033;DHT22;4551;53.164;8.210;2022-10-16T06:29:50;12.70;99.90
9033;DHT22;4551;53.164;8.210;2022-10-16T06:32:17;12.70;99.90
9033;DHT22;4551;53.164;8.210;2022-10-16T06:34:47;12.70;99.90
9033;DHT22;4551;53.164;8.210;2022-10-16T06:37:15;12.70;99.90
9033;DHT22;4551;53.164;8.210;2022-10-16T06:39:42;12.70;99.90
9033;DHT22;4551;53.164;8.210;2022-10-16T06:42:10;12.70;99.90
9033;DHT22;4551;53.164;8.210;2022-10-16T06:44:38;12.70;99.90
9033;DHT22;4551;53.164;8.210;2022-10-16T06:47:06;12.80;99.90
9033;DHT22;4551;53.164;8.210;2022-10-16T06:49:34;12.80;99.90
9033;DHT22;4551;53.164;8.210;2022-10-16T06:52:04;12.80;99.90
9033;DHT22;4551;53.164;8.210;2022-10-16T06:54:32;12.80;99.90
9033;DHT22;4551;53.164;8.210;2022-10-16T06:57:08;12.80;99.90
9033;DHT22;4551;53.164;8.210;2022-10-16T06:59:36;12.80;99.90
9033;DHT22;4551;53.164;8.210;2022-10-16T07:02:04;12.80;99.90
9033;DHT22;4551;53.164;8.210;2022-10-16T07:04:33;12.80;99.90
9033;DHT22;4551;53.164;8.210;2022-10-16T07:07:01;12.80;99.90
9033;DHT22;4551;53.164;8.210;2022-10-16T07:09:36;12.80;99.90
9033;DHT22;4551;53.164;8.210;2022-10-16T07:12:04;12.80;99.90
9033;DHT22;4551;53.164;8.210;2022-10-16T07:14:32;12.80;99.90
9033;DHT22;4551;53.164;8.210;2022-10-16T07:17:00;12.80;99.90
9033;DHT22;4551;53.164;8.210;2022-10-16T07:19:28;12.90;99.90
9033;DHT22;4551;53.164;8.210;2022-10-16T07:22:00;12.90;99.90
9033;DHT22;4551;53.164;8.210;2022-10-16T07:24:28;12.90;99.90
9033;DHT22;4551;53.164;8.210;2022-10-16T07:26:57;12.90;99.90
9033;DHT22;4551;53.164;8.210;2022-10-16T07:29:25;13.10;99.90
9033;DHT22;4551;53.164;8.210;2022-10-16T07:31:53;13.00;99.90
9033;DHT22;4551;53.164;8.210;2022-10-16T07:34:21;13.00;99.90
9033;DHT22;4551;53.164;8.210;2022-10-16T07:36:49;13.00;99.90
9033;DHT22;4551;53.164;8.210;2022-10-16T07:39:17;13.10;99.90
9033;DHT22;4551;53.164;8.210;2022-10-16T07:41:45;13.10;99.90
9033;DHT22;4551;53.164;8.210;2022-10-16T07:44:16;13.20;99.90
9033;DHT22;4551;53.164;8.210;2022-10-16T07:46:44;13.10;99.90
9033;DHT22;4551;53.164;8.210;2022-10-16T07:49:12;13.20;99.90
9033;DHT22;4551;53.164;8.210;2022-10-16T07:51:40;13.20;99.90
9033;DHT22;4551;53.164;8.210;2022-10-16T07:54:08;13.30;99.90
9033;DHT22;4551;53.164;8.210;2022-10-16T07:56:36;13.30;99.90
9033;DHT22;4551;53.164;8.210;2022-10-16T07:59:09;13.30;99.90
9033;DHT22;4551;53.164;8.210;2022-10-16T08:01:38;13.30;99.90
9033;DHT22;4551;53.164;8.210;2022-10-16T08:04:08;13.40;99.90
9033;DHT22;4551;53.164;8.210;2022-10-16T08:06:37;13.40;99.90
9033;DHT22;4551;53.164;8.210;2022-10-16T08:09:06;13.40;99.90
9033;DHT22;4551;53.164;8.210;2022-10-16T08:11:34;13.50;99.90
9033;DHT22;4551;53.164;8.210;2022-10-16T08:14:02;13.50;99.90
9033;DHT22;4551;53.164;8.210;2022-10-16T08:16:30;13.60;99.90
9033;DHT22;4551;53.164;8.210;2022-10-16T08:18:59;13.70;99.90
9033;DHT22;4551;53.164;8.210;2022-10-16T08:21:27;13.70;99.90
9033;DHT22;4551;53.164;8.210;2022-10-16T08:23:55;13.80;99.90
9033;DHT22;4551;53.164;8.210;2022-10-16T08:26:24;13.90;99.90
9033;DHT22;4551;53.164;8.210;2022-10-16T08:28:53;14.00;99.90
9033;DHT22;4551;53.164;8.210;2022-10-16T08:31:21;14.00;99.90
9033;DHT22;4551;53.164;8.210;2022-10-16T08:33:49;14.00;99.90
9033;DHT22;4551;53.164;8.210;2022-10-16T08:36:20;14.10;99.90
9033;DHT22;4551;53.164;8.210;2022-10-16T08:38:48;14.20;99.90
9033;DHT22;4551;53.164;8.210;2022-10-16T08:41:22;14.30;99.90
9033;DHT22;4551;53.164;8.210;2022-10-16T08:44:05;14.30;99.90
9033;DHT22;4551;53.164;8.210;2022-10-16T08:46:41;14.40;99.90
9033;DHT22;4551;53.164;8.210;2022-10-16T08:49:16;14.40;99.90
9033;DHT22;4551;53.164;8.210;2022-10-16T08:51:45;14.40;99.90
9033;DHT22;4551;53.164;8.210;2022-10-16T08:54:21;14.50;99.90
9033;DHT22;4551;53.164;8.210;2022-10-16T08:56:50;14.50;99.90
9033;DHT22;4551;53.164;8.210;2022-10-16T08:59:19;14.50;99.90
9033;DHT22;4551;53.164;8.210;2022-10-16T09:01:49;14.50;99.90
9033;DHT22;4551;53.164;8.210;2022-10-16T09:07:02;14.50;99.90
9033;DHT22;4551;53.164;8.210;2022-10-16T09:09:39;14.50;99.90
9033;DHT22;4551;53.164;8.210;2022-10-16T09:12:10;14.60;99.90
9033;DHT22;4551;53.164;8.210;2022-10-16T09:14:42;14.60;99.90
9033;DHT22;4551;53.164;8.210;2022-10-16T09:17:18;14.60;99.90
9033;DHT22;4551;53.164;8.210;2022-10-16T09:19:51;14.60;99.90
9033;DHT22;4551;53.164;8.210;2022-10-16T09:22:22;14.60;99.90
9033;DHT22;4551;53.164;8.210;2022-10-16T09:24:54;14.70;99.90
9033;DHT22;4551;53.164;8.210;2022-10-16T09:27:22;14.70;99.90
9033;DHT22;4551;53.164;8.210;2022-10-16T09:29:55;14.70;99.90
9033;DHT22;4551;53.164;8.210;2022-10-16T09:32:25;14.70;99.90
9033;DHT22;4551;53.164;8.210;2022-10-16T09:34:54;14.70;99.90
9033;DHT22;4551;53.164;8.210;2022-10-16T09:37:26;14.70;99.90
9033;DHT22;4551;53.164;8.210;2022-10-16T09:39:55;14.70;99.90
9033;DHT22;4551;53.164;8.210;2022-10-16T09:42:24;14.80;99.90
9033;DHT22;4551;53.164;8.210;2022-10-16T09:44:52;14.90;99.90
9033;DHT22;4551;53.164;8.210;2022-10-16T09:47:22;14.90;99.90
9033;DHT22;4551;53.164;8.210;2022-10-16T09:49:52;15.00;99.90
9033;DHT22;4551;53.164;8.210;2022-10-16T09:52:21;15.10;99.90
9033;DHT22;4551;53.164;8.210;2022-10-16T09:54:52;15.20;99.90
9033;DHT22;4551;53.164;8.210;2022-10-16T09:57:20;15.20;99.90
9033;DHT22;4551;53.164;8.210;2022-10-16T09:59:49;15.30;99.90
9033;DHT22;4551;53.164;8.210;2022-10-16T10:02:18;15.40;99.90
9033;DHT22;4551;53.164;8.210;2022-10-16T10:04:50;15.40;99.90
9033;DHT22;4551;53.164;8.210;2022-10-16T10:07:22;15.50;99.90
9033;DHT22;4551;53.164;8.210;2022-10-16T10:09:53;15.50;99.90
9033;DHT22;4551;53.164;8.210;2022-10-16T10:12:23;15.60;99.90
9033;DHT22;4551;53.164;8.210;2022-10-16T10:14:53;15.60;99.90
9033;DHT22;4551;53.164;8.210;2022-10-16T10:17:24;15.70;99.90
9033;DHT22;4551;53.164;8.210;2022-10-16T10:19:53;15.70;99.90
9033;DHT22;4551;53.164;8.210;2022-10-16T10:22:23;16.20;99.90
9033;DHT22;4551;53.164;8.210;2022-10-16T10:25:12;15.70;99.90
9033;DHT22;4551;53.164;8.210;2022-10-16T10:30:41;15.70;99.90
9033;DHT22;4551;53.164;8.210;2022-10-16T10:33:14;15.80;99.90
9033;DHT22;4551;53.164;8.210;2022-10-16T10:35:47;15.80;99.90
9033;DHT22;4551;53.164;8.210;2022-10-16T10:38:23;15.80;99.90
9033;DHT22;4551;53.164;8.210;2022-10-16T10:40:57;15.90;99.90
9033;DHT22;4551;53.164;8.210;2022-10-16T10:43:38;15.90;99.90
9033;DHT22;4551;53.164;8.210;2022-10-16T10:46:08;16.00;99.90
9033;DHT22;4551;53.164;8.210;2022-10-16T10:48:46;16.00;99.90
9033;DHT22;4551;53.164;8.210;2022-10-16T10:51:16;16.10;99.90
9033;DHT22;4551;53.164;8.210;2022-10-16T10:53:49;16.10;99.90
9033;DHT22;4551;53.164;8.210;2022-10-16T10:56:28;16.10;99.90
9033;DHT22;4551;53.164;8.210;2022-10-16T10:59:07;16.20;99.90
9033;DHT22;4551;53.164;8.210;2022-10-16T11:01:39;16.20;99.90
9033;DHT22;4551;53.164;8.210;2022-10-16T11:04:16;16.30;99.90
9033;DHT22;4551;53.164;8.210;2022-10-16T11:06:47;16.30;99.90
9033;DHT22;4551;53.164;8.210;2022-10-16T11:09:17;16.40;99.90
9033;DHT22;4551;53.164;8.210;2022-10-16T11:11:48;16.50;99.90
9033;DHT22;4551;53.164;8.210;2022-10-16T11:14:18;16.60;99.90
9033;DHT22;4551;53.164;8.210;2022-10-16T11:16:48;16.70;99.90
9033;DHT22;4551;53.164;8.210;2022-10-16T11:19:20;16.80;99.90
9033;DHT22;4551;53.164;8.210;2022-10-16T11:21:50;16.80;99.90
9033;DHT22;4551;53.164;8.210;2022-10-16T11:24:22;16.90;99.90
9033;DHT22;4551;53.164;8.210;2022-10-16T11:26:52;17.00;99.90
9033;DHT22;4551;53.164;8.210;2022-10-16T11:29:22;17.00;99.90
9033;DHT22;4551;53.164;8.210;2022-10-16T11:31:52;17.10;99.90
9033;DHT22;4551;53.164;8.210;2022-10-16T11:34:22;17.10;99.90
9033;DHT22;4551;53.164;8.210;2022-10-16T11:36:53;17.10;99.90
9033;DHT22;4551;53.164;8.210;2022-10-16T11:39:24;17.10;99.90
9033;DHT22;4551;53.164;8.210;2022-10-16T11:41:54;17.10;99.90
9033;DHT22;4551;53.164;8.210;2022-10-16T11:47:20;17.00;99.90
9033;DHT22;4551;53.164;8.210;2022-10-16T11:50:13;17.00;99.90
9033;DHT22;4551;53.164;8.210;2022-10-16T11:52:46;16.90;99.90
9033;DHT22;4551;53.164;8.210;2022-10-16T11:55:20;16.80;99.90
9033;DHT22;4551;53.164;8.210;2022-10-16T11:57:50;16.90;99.90
9033;DHT22;4551;53.164;8.210;2022-10-16T12:00:20;16.90;99.90
9033;DHT22;4551;53.164;8.210;2022-10-16T12:02:51;16.90;99.90
9033;DHT22;4551;53.164;8.210;2022-10-16T12:05:24;16.80;99.90
9033;DHT22;4551;53.164;8.210;2022-10-16T12:07:55;17.00;99.90
9033;DHT22;4551;53.164;8.210;2022-10-16T12:10:27;17.10;99.90
9033;DHT22;4551;53.164;8.210;2022-10-16T12:12:57;17.20;99.90
9033;DHT22;4551;53.164;8.210;2022-10-16T12:15:25;17.30;99.90
9033;DHT22;4551;53.164;8.210;2022-10-16T12:18:20;17.40;99.90
9033;DHT22;4551;53.164;8.210;2022-10-16T12:20:54;18.30;99.90
9033;DHT22;4551;53.164;8.210;2022-10-16T12:23:25;17.80;99.90
9033;DHT22;4551;53.164;8.210;2022-10-16T12:25:54;17.80;99.90
9033;DHT22;4551;53.164;8.210;2022-10-16T12:28:26;17.80;99.90
9033;DHT22;4551;53.164;8.210;2022-10-16T12:30:54;17.80;99.90
9033;DHT22;4551;53.164;8.210;2022-10-16T12:33:23;17.90;99.90
9033;DHT22;4551;53.164;8.210;2022-10-16T12:35:52;18.10;99.90
9033;DHT22;4551;53.164;8.210;2022-10-16T12:38:21;18.30;99.90
9033;DHT22;4551;53.164;8.210;2022-10-16T12:40:56;18.50;99.90
9033;DHT22;4551;53.164;8.210;2022-10-16T12:43:34;18.60;99.90
9033;DHT22;4551;53.164;8.210;2022-10-16T12:46:03;18.90;99.90
9033;DHT22;4551;53.164;8.210;2022-10-16T12:48:31;19.10;99.90
9033;DHT22;4551;53.164;8.210;2022-10-16T12:51:22;19.30;99.90
9033;DHT22;4551;53.164;8.210;2022-10-16T12:53:59;19.70;99.90
9033;DHT22;4551;53.164;8.210;2022-10-16T12:56:31;20.10;99.90
9033;DHT22;4551;53.164;8.210;2022-10-16T12:59:06;20.30;99.90
9033;DHT22;4551;53.164;8.210;2022-10-16T13:01:41;20.50;99.90
9033;DHT22;4551;53.164;8.210;2022-10-16T13:04:20;20.40;99.90
9033;DHT22;4551;53.164;8.210;2022-10-16T13:06:50;20.40;99.90
9033;DHT22;4551;53.164;8.210;2022-10-16T13:09:27;20.50;99.90
9033;DHT22;4551;53.164;8.210;2022-10-16T13:12:01;20.80;99.90
9033;DHT22;4551;53.164;8.210;2022-10-16T13:17:17;21.30;99.90
9033;DHT22;4551;53.164;8.210;2022-10-16T13:19:52;21.40;99.90
9033;DHT22;4551;53.164;8.210;2022-10-16T13:22:23;21.50;99.90
9033;DHT22;4551;53.164;8.210;2022-10-16T13:24:58;21.70;99.90
9033;DHT22;4551;53.164;8.210;2022-10-16T13:27:33;21.80;99.90
9033;DHT22;4551;53.164;8.210;2022-10-16T13:30:08;21.90;99.90
9033;DHT22;4551;53.164;8.210;2022-10-16T13:32:39;21.80;99.90
9033;DHT22;4551;53.164;8.210;2022-10-16T13:35:18;22.00;99.90
9033;DHT22;4551;53.164;8.210;2022-10-16T13:37:46;22.10;99.90
9033;DHT22;4551;53.164;8.210;2022-10-16T13:40:18;22.20;99.90
9033;DHT22;4551;53.164;8.210;2022-10-16T13:42:46;22.20;99.90
9033;DHT22;4551;53.164;8.210;2022-10-16T13:45:17;22.30;99.90
9033;DHT22;4551;53.164;8.210;2022-10-16T13:47:47;22.40;99.90
9033;DHT22;4551;53.164;8.210;2022-10-16T13:50:16;22.50;99.90
9033;DHT22;4551;53.164;8.210;2022-10-16T13:52:44;22.50;99.90
9033;DHT22;4551;53.164;8.210;2022-10-16T13:55:12;22.30;99.90
9033;DHT22;4551;53.164;8.210;2022-10-16T13:57:41;22.30;99.90
9033;DHT22;4551;53.164;8.210;2022-10-16T14:00:18;22.40;99.90
9033;DHT22;4551;53.164;8.210;2022-10-16T14:02:50;22.40;99.90
9033;DHT22;4551;53.164;8.210;2022-10-16T14:05:20;22.70;99.90
9033;DHT22;4551;53.164;8.210;2022-10-16T14:07:48;22.70;99.90
9033;DHT22;4551;53.164;8.210;2022-10-16T14:10:22;22.80;99.90
9033;DHT22;4551;53.164;8.210;2022-10-16T14:12:54;22.90;99.90
9033;DHT22;4551;53.164;8.210;2022-10-16T14:15:22;22.80;99.90
9033;DHT22;4551;53.164;8.210;2022-10-16T14:17:51;22.80;99.90
9033;DHT22;4551;53.164;8.210;2022-10-16T14:20:20;22.40;99.90
9033;DHT22;4551;53.164;8.210;2022-10-16T14:22:57;22.40;99.90
9033;DHT22;4551;53.164;8.210;2022-10-16T14:25:26;22.20;99.90
9033;DHT22;4551;53.164;8.210;2022-10-16T14:27:59;22.30;99.90
9033;DHT22;4551;53.164;8.210;2022-10-16T14:30:33;22.20;99.90
9033;DHT22;4551;53.164;8.210;2022-10-16T14:33:03;22.10;99.90
9033;DHT22;4551;53.164;8.210;2022-10-16T14:35:32;21.70;99.90
9033;DHT22;4551;53.164;8.210;2022-10-16T14:38:01;21.40;99.90
9033;DHT22;4551;53.164;8.210;2022-10-16T14:40:30;21.00;99.90
9033;DHT22;4551;53.164;8.210;2022-10-16T14:42:58;21.00;99.90
9033;DHT22;4551;53.164;8.210;2022-10-16T14:45:27;21.20;99.90
9033;DHT22;4551;53.164;8.210;2022-10-16T14:47:56;21.20;99.90
9033;DHT22;4551;53.164;8.210;2022-10-16T14:50:26;21.30;99.90
9033;DHT22;4551;53.164;8.210;2022-10-16T14:52:54;21.20;99.90
9033;DHT22;4551;53.164;8.210;2022-10-16T14:55:22;21.20;99.90
9033;DHT22;4551;53.164;8.210;2022-10-16T14:57:51;20.80;99.90
9033;DHT22;4551;53.164;8.210;2022-10-16T15:00:25;21.30;99.90
9033;DHT22;4551;53.164;8.210;2022-10-16T15:02:53;21.20;99.90
9033;DHT22;4551;53.164;8.210;2022-10-16T15:05:21;21.20;99.90
9033;DHT22;4551;53.164;8.210;2022-10-16T15:07:51;21.10;99.90
9033;DHT22;4551;53.164;8.210;2022-10-16T15:10:22;21.10;99.90
9033;DHT22;4551;53.164;8.210;2022-10-16T15:12:50;21.00;99.90
9033;DHT22;4551;53.164;8.210;2022-10-16T15:15:23;20.80;99.90
9033;DHT22;4551;53.164;8.210;2022-10-16T15:17:52;20.70;99.90
9033;DHT22;4551;53.164;8.210;2022-10-16T15:20:22;20.60;99.90
9033;DHT22;4551;53.164;8.210;2022-10-16T15:22:52;20.50;99.90
9033;DHT22;4551;53.164;8.210;2022-10-16T15:28:03;20.30;99.90
9033;DHT22;4551;53.164;8.210;2022-10-16T15:30:31;20.10;99.90
9033;DHT22;4551;53.164;8.210;2022-10-16T15:32:59;20.00;99.90
9033;DHT22;4551;53.164;8.210;2022-10-16T15:35:27;19.80;99.90
9033;DHT22;4551;53.164;8.210;2022-10-16T15:37:56;19.70;99.90
9033;DHT22;4551;53.164;8.210;2022-10-16T15:40:25;19.60;99.90
9033;DHT22;4551;53.164;8.210;2022-10-16T15:42:52;19.50;99.90
9033;DHT22;4551;53.164;8.210;2022-10-16T15:45:21;19.40;99.90
9033;DHT22;4551;53.164;8.210;2022-10-16T15:47:49;19.30;99.90
9033;DHT22;4551;53.164;8.210;2022-10-16T15:50:17;19.30;99.90
9033;DHT22;4551;53.164;8.210;2022-10-16T15:52:45;19.10;99.90
9033;DHT22;4551;53.164;8.210;2022-10-16T15:55:14;19.00;99.90
9033;DHT22;4551;53.164;8.210;2022-10-16T15:57:42;18.90;99.90
9033;DHT22;4551;53.164;8.210;2022-10-16T16:00:11;18.70;99.90
9033;DHT22;4551;53.164;8.210;2022-10-16T16:02:39;18.70;99.90
9033;DHT22;4551;53.164;8.210;2022-10-16T16:05:08;18.60;99.90
9033;DHT22;4551;53.164;8.210;2022-10-16T16:07:36;18.50;99.90
9033;DHT22;4551;53.164;8.210;2022-10-16T16:10:05;18.40;99.90
9033;DHT22;4551;53.164;8.210;2022-10-16T16:12:35;18.30;99.90
9033;DHT22;4551;53.164;8.210;2022-10-16T16:15:05;18.20;99.90
9033;DHT22;4551;53.164;8.210;2022-10-16T16:17:34;18.10;99.90
9033;DHT22;4551;53.164;8.210;2022-10-16T16:20:03;18.10;99.90
9033;DHT22;4551;53.164;8.210;2022-10-16T16:22:32;18.00;99.90
9033;DHT22;4551;53.164;8.210;2022-10-16T16:24:59;18.00;99.90
9033;DHT22;4551;53.164;8.210;2022-10-16T16:27:27;17.90;99.90
9033;DHT22;4551;53.164;8.210;2022-10-16T16:30:01;17.90;99.90
9033;DHT22;4551;53.164;8.210;2022-10-16T16:32:30;17.90;99.90
9033;DHT22;4551;53.164;8.210;2022-10-16T16:34:58;17.80;99.90
9033;DHT22;4551;53.164;8.210;2022-10-16T16:37:26;17.70;99.90
9033;DHT22;4551;53.164;8.210;2022-10-16T16:39:54;17.80;99.90